createdAt,value
2022-09-27T00:01:18.073Z,17.95
2022-09-27T00:06:48.745Z,17.85
2022-09-27T00:09:19.413Z,17.86
2022-09-27T00:11:47.767Z,17.90
2022-09-27T00:14:15.942Z,17.88
2022-09-27T00:16:45.345Z,17.73
2022-09-27T00:19:20.228Z,17.70
2022-09-27T00:21:48.703Z,17.92
2022-09-27T00:24:20.800Z,17.77
2022-09-27T00:26:50.518Z,17.86
2022-09-27T00:29:18.747Z,17.85
2022-09-27T00:31:49.550Z,17.82
2022-09-27T00:34:26.488Z,17.75
2022-09-27T00:36:59.310Z,17.75
2022-09-27T00:39:26.016Z,17.83
2022-09-27T00:41:53.067Z,17.75
2022-09-27T00:44:39.876Z,17.85
2022-09-27T00:47:23.239Z,17.71
2022-09-27T00:50:05.306Z,17.80
2022-09-27T00:52:55.272Z,17.84
2022-09-27T00:55:30.742Z,17.76
2022-09-27T00:57:58.095Z,17.70
2022-09-27T01:00:24.779Z,17.75
2022-09-27T01:02:55.070Z,17.89
2022-09-27T01:05:29.895Z,17.96
2022-09-27T01:07:56.831Z,17.80
2022-09-27T01:10:25.589Z,17.89
2022-09-27T01:13:38.265Z,17.85
2022-09-27T01:16:18.883Z,17.88
2022-09-27T01:19:30.336Z,17.87
2022-09-27T01:22:22.612Z,17.81
2022-09-27T01:25:03.112Z,17.76
2022-09-27T01:27:51.520Z,17.75
2022-09-27T01:30:24.111Z,17.60
2022-09-27T01:33:22.570Z,17.72
2022-09-27T01:36:26.263Z,17.77
2022-09-27T01:38:52.992Z,17.81
2022-09-27T01:41:40.882Z,17.81
2022-09-27T01:44:33.661Z,17.73
2022-09-27T01:47:24.639Z,17.85
2022-09-27T01:50:01.828Z,17.89
2022-09-27T01:52:37.286Z,17.82
2022-09-27T01:55:08.453Z,17.80
2022-09-27T01:57:42.525Z,17.95
2022-09-27T02:00:14.419Z,17.94
2022-09-27T02:03:04.156Z,17.78
2022-09-27T02:05:43.233Z,17.94
2022-09-27T02:08:19.548Z,17.78
2022-09-27T02:10:49.344Z,17.95
2022-09-27T02:13:35.361Z,17.74
2022-09-27T02:16:21.054Z,17.97
2022-09-27T02:19:19.313Z,17.96
2022-09-27T02:22:06.919Z,17.98
2022-09-27T02:24:42.015Z,17.93
2022-09-27T02:27:50.327Z,17.93
2022-09-27T02:30:18.312Z,17.99
2022-09-27T02:32:48.067Z,17.95
2022-09-27T02:35:48.791Z,17.99
2022-09-27T02:38:16.225Z,17.94
2022-09-27T02:40:45.694Z,18.01
2022-09-27T02:43:33.541Z,18.03
2022-09-27T02:46:18.900Z,18.01
2022-09-27T02:49:32.351Z,17.97
2022-09-27T02:52:17.739Z,18.04
2022-09-27T02:55:09.379Z,18.05
2022-09-27T02:58:13.460Z,18.04
2022-09-27T03:00:44.690Z,17.96
2022-09-27T03:03:40.674Z,18.03
2022-09-27T03:06:31.058Z,18.08
2022-09-27T03:08:57.778Z,18.01
2022-09-27T03:11:24.621Z,18.00
2022-09-27T03:14:07.960Z,18.02
2022-09-27T03:16:39.447Z,17.97
2022-09-27T03:19:06.349Z,17.98
2022-09-27T03:21:32.975Z,18.02
2022-09-27T03:23:59.745Z,17.92
2022-09-27T03:26:26.337Z,17.95
2022-09-27T03:28:53.232Z,18.01
2022-09-27T03:31:20.337Z,17.99
2022-09-27T03:33:48.183Z,18.05
2022-09-27T03:36:15.010Z,18.15
2022-09-27T03:38:42.190Z,18.07
2022-09-27T03:41:08.992Z,17.89
2022-09-27T03:43:36.662Z,17.92
2022-09-27T03:46:03.411Z,18.13
2022-09-27T03:48:32.138Z,18.01
2022-09-27T03:51:00.348Z,18.07
2022-09-27T03:53:27.185Z,17.95
2022-09-27T03:55:53.934Z,17.98
2022-09-27T03:58:20.545Z,18.06
2022-09-27T04:00:49.622Z,17.84
2022-09-27T04:03:17.695Z,17.99
2022-09-27T04:05:44.299Z,18.04
2022-09-27T04:08:11.903Z,17.86
2022-09-27T04:10:38.506Z,17.94
2022-09-27T04:13:05.626Z,18.01
2022-09-27T04:15:32.331Z,18.04
2022-09-27T04:17:58.989Z,18.00
2022-09-27T04:20:25.665Z,18.02
2022-09-27T04:22:57.545Z,17.92
2022-09-27T04:25:24.208Z,17.92
2022-09-27T04:27:55.452Z,17.88
2022-09-27T04:30:22.896Z,18.01
2022-09-27T04:32:49.509Z,17.99
2022-09-27T04:35:37.638Z,18.06
2022-09-27T04:38:04.793Z,18.36
2022-09-27T04:40:36.093Z,18.38
2022-09-27T04:43:05.072Z,18.34
2022-09-27T04:45:31.864Z,18.34
2022-09-27T04:48:04.245Z,18.34
2022-09-27T04:50:35.824Z,18.16
2022-09-27T04:53:05.138Z,18.23
2022-09-27T04:55:38.693Z,18.23
2022-09-27T04:58:05.849Z,18.16
2022-09-27T05:00:32.639Z,18.29
2022-09-27T05:02:59.334Z,18.09
2022-09-27T05:05:26.322Z,18.19
2022-09-27T05:07:52.926Z,18.29
2022-09-27T05:10:20.959Z,18.21
2022-09-27T05:12:47.757Z,18.34
2022-09-27T05:15:14.377Z,18.45
2022-09-27T05:17:41.132Z,18.61
2022-09-27T05:20:09.931Z,18.61
2022-09-27T05:22:38.125Z,18.73
2022-09-27T05:25:05.768Z,18.61
2022-09-27T05:27:34.679Z,18.66
2022-09-27T05:30:09.959Z,18.73
2022-09-27T05:32:51.824Z,18.76
2022-09-27T05:35:19.319Z,18.60
2022-09-27T05:38:05.120Z,18.75
2022-09-27T05:40:41.720Z,18.60
2022-09-27T05:43:10.582Z,18.78
2022-09-27T05:45:37.187Z,18.64
2022-09-27T05:48:06.192Z,18.88
2022-09-27T05:50:32.821Z,18.85
2022-09-27T05:52:59.496Z,18.85
2022-09-27T05:55:28.707Z,19.06
2022-09-27T05:57:57.718Z,19.15
2022-09-27T06:00:25.980Z,19.53
2022-09-27T06:02:57.536Z,19.67
2022-09-27T06:05:25.460Z,19.79
2022-09-27T06:07:53.390Z,19.78
2022-09-27T06:10:23.401Z,20.04
2022-09-27T06:12:50.451Z,20.06
2022-09-27T06:15:18.968Z,20.08
2022-09-27T06:17:45.555Z,20.21
2022-09-27T06:20:13.372Z,20.16
2022-09-27T06:22:41.361Z,20.24
2022-09-27T06:25:09.724Z,20.18
2022-09-27T06:27:36.273Z,20.22
2022-09-27T06:30:03.812Z,20.48
2022-09-27T06:32:30.561Z,20.59
2022-09-27T06:34:57.208Z,20.65
2022-09-27T06:37:27.277Z,20.72
2022-09-27T06:39:54.502Z,20.72
2022-09-27T06:42:21.295Z,20.63
2022-09-27T06:44:50.683Z,20.68
2022-09-27T06:47:17.750Z,20.84
2022-09-27T06:49:44.389Z,20.90
2022-09-27T06:52:13.313Z,20.90
2022-09-27T06:54:39.894Z,20.90
2022-09-27T06:57:06.475Z,20.95
2022-09-27T06:59:52.615Z,21.05
2022-09-27T07:02:19.230Z,21.00
2022-09-27T07:04:46.031Z,21.28
2022-09-27T07:07:14.265Z,21.36
2022-09-27T07:09:40.969Z,21.15
2022-09-27T07:12:07.655Z,21.24
2022-09-27T07:14:34.860Z,21.19
2022-09-27T07:17:01.580Z,21.12
2022-09-27T07:19:28.516Z,21.14
2022-09-27T07:24:36.869Z,21.21
2022-09-27T07:27:03.548Z,21.39
2022-09-27T07:29:30.237Z,21.30
2022-09-27T07:31:59.902Z,21.47
2022-09-27T07:34:26.642Z,21.46
2022-09-27T07:36:57.374Z,21.43
2022-09-27T07:39:26.815Z,21.33
2022-09-27T07:41:53.979Z,21.37
2022-09-27T07:44:20.707Z,21.48
2022-09-27T07:46:47.422Z,21.56
2022-09-27T07:49:14.969Z,21.82
2022-09-27T07:51:43.039Z,21.98
2022-09-27T07:54:09.723Z,22.02
2022-09-27T07:56:36.428Z,22.36
2022-09-27T07:59:04.372Z,22.55
2022-09-27T08:01:31.066Z,22.35
2022-09-27T08:03:58.857Z,22.69
2022-09-27T08:06:25.777Z,22.72
2022-09-27T08:08:52.415Z,22.55
2022-09-27T08:11:26.243Z,22.77
2022-09-27T08:13:53.101Z,22.49
2022-09-27T08:16:19.896Z,22.48
2022-09-27T08:18:47.357Z,22.76
2022-09-27T08:21:16.181Z,22.70
2022-09-27T08:23:45.151Z,22.90
2022-09-27T08:26:15.423Z,23.12
2022-09-27T08:28:42.004Z,23.35
2022-09-27T08:31:09.931Z,23.75
2022-09-27T08:33:41.214Z,23.50
2022-09-27T08:36:12.561Z,23.45
2022-09-27T08:38:39.569Z,23.49
2022-09-27T08:41:12.740Z,23.72
2022-09-27T08:43:52.807Z,23.79
2022-09-27T08:46:40.708Z,24.07
2022-09-27T08:49:19.688Z,24.11
2022-09-27T08:51:52.632Z,24.43
2022-09-27T08:54:39.910Z,24.59
2022-09-27T08:57:16.705Z,24.64
2022-09-27T08:59:58.787Z,24.91
2022-09-27T09:02:26.471Z,24.94
2022-09-27T09:05:02.047Z,25.22
2022-09-27T09:08:11.588Z,25.28
2022-09-27T09:11:17.627Z,25.37
2022-09-27T09:14:01.381Z,25.54
2022-09-27T09:17:12.457Z,25.35
2022-09-27T09:20:20.665Z,25.19
2022-09-27T09:23:22.568Z,25.18
2022-09-27T09:26:15.638Z,25.32
2022-09-27T09:29:14.655Z,25.28
2022-09-27T09:31:53.076Z,25.59
2022-09-27T09:34:38.467Z,25.59
2022-09-27T09:37:29.715Z,25.80
2022-09-27T09:40:09.180Z,25.91
2022-09-27T09:42:42.259Z,25.74
2022-09-27T09:45:25.185Z,26.09
2022-09-27T09:48:02.960Z,26.10
2022-09-27T09:50:52.721Z,26.17
2022-09-27T09:53:25.945Z,26.45
2022-09-27T09:56:15.953Z,26.68
2022-09-27T09:58:46.562Z,26.65
2022-09-27T10:01:37.803Z,26.98
2022-09-27T10:04:04.649Z,26.86
2022-09-27T10:06:32.353Z,26.81
2022-09-27T10:08:59.986Z,26.69
2022-09-27T10:11:35.735Z,26.81
2022-09-27T10:14:02.625Z,26.83
2022-09-27T10:16:29.397Z,27.07
2022-09-27T10:19:02.956Z,27.19
2022-09-27T10:21:30.934Z,27.26
2022-09-27T10:24:06.572Z,27.35
2022-09-27T10:26:33.545Z,27.59
2022-09-27T10:29:20.789Z,27.92
2022-09-27T10:31:50.466Z,28.12
2022-09-27T10:34:22.879Z,28.23
2022-09-27T10:37:13.637Z,28.26
2022-09-27T10:39:44.016Z,28.25
2022-09-27T10:42:23.076Z,28.14
2022-09-27T10:44:50.021Z,28.18
2022-09-27T10:47:31.848Z,28.30
2022-09-27T10:50:08.419Z,28.44
2022-09-27T10:52:37.324Z,28.31
2022-09-27T10:55:24.673Z,28.40
2022-09-27T10:57:54.780Z,28.41
2022-09-27T11:00:32.713Z,28.30
2022-09-27T11:03:15.109Z,28.12
2022-09-27T11:05:44.851Z,28.31
2022-09-27T11:08:34.364Z,28.40
2022-09-27T11:11:02.834Z,28.41
2022-09-27T11:13:33.104Z,28.68
2022-09-27T11:16:34.848Z,29.22
2022-09-27T11:19:20.910Z,29.67
2022-09-27T11:21:56.455Z,28.80
2022-09-27T11:24:52.512Z,29.37
2022-09-27T11:27:57.671Z,29.59
2022-09-27T11:30:24.959Z,29.70
2022-09-27T11:32:54.509Z,30.12
2022-09-27T11:35:49.121Z,30.50
2022-09-27T11:38:51.162Z,30.69
2022-09-27T11:41:36.194Z,32.02
2022-09-27T11:44:25.910Z,34.00
2022-09-27T11:47:05.871Z,33.98
2022-09-27T11:49:45.901Z,33.25
2022-09-27T11:52:36.832Z,34.62
2022-09-27T11:55:20.339Z,36.50
2022-09-27T11:58:24.621Z,38.29
2022-09-27T12:01:19.992Z,38.92
2022-09-27T12:03:52.740Z,38.59
2022-09-27T12:06:37.338Z,40.20
2022-09-27T12:09:27.113Z,39.53
2022-09-27T12:12:29.669Z,39.83
2022-09-27T12:15:06.483Z,39.06
2022-09-27T12:17:42.755Z,39.53
2022-09-27T12:20:24.524Z,40.02
2022-09-27T12:23:06.173Z,39.51
2022-09-27T12:25:40.177Z,39.27
2022-09-27T12:28:34.836Z,39.36
2022-09-27T12:31:29.806Z,38.68
2022-09-27T12:34:28.169Z,37.52
2022-09-27T12:37:42.831Z,37.92
2022-09-27T12:40:25.192Z,38.29
2022-09-27T12:42:54.582Z,37.84
2022-09-27T12:45:48.562Z,35.83
2022-09-27T12:48:25.573Z,32.71
2022-09-27T12:51:11.132Z,31.46
2022-09-27T12:54:15.755Z,31.24
2022-09-27T12:57:15.837Z,30.96
2022-09-27T12:59:50.626Z,29.77
2022-09-27T13:02:26.439Z,29.40
2022-09-27T13:05:39.743Z,29.45
2022-09-27T13:08:24.750Z,29.40
2022-09-27T13:11:23.673Z,28.82
2022-09-27T13:14:01.094Z,28.41
2022-09-27T13:16:28.532Z,28.26
2022-09-27T13:19:04.398Z,27.93
2022-09-27T13:21:49.635Z,27.73
2022-09-27T13:24:39.514Z,27.52
2022-09-27T13:27:40.498Z,27.11
2022-09-27T13:30:12.916Z,26.93
2022-09-27T13:32:41.022Z,26.84
2022-09-27T13:35:24.580Z,26.92
2022-09-27T13:37:59.247Z,26.71
2022-09-27T13:40:27.798Z,26.59
2022-09-27T13:42:55.837Z,26.50
2022-09-27T13:45:32.325Z,26.27
2022-09-27T13:48:04.936Z,26.26
2022-09-27T13:50:49.069Z,26.10
2022-09-27T13:53:31.819Z,26.18
2022-09-27T13:56:01.221Z,26.09
2022-09-27T13:58:51.986Z,26.17
2022-09-27T14:01:33.873Z,26.15
2022-09-27T14:04:20.027Z,26.26
2022-09-27T14:06:51.448Z,26.11
2022-09-27T14:09:21.520Z,26.24
2022-09-27T14:11:56.529Z,26.36
2022-09-27T14:14:27.511Z,26.26
2022-09-27T14:16:54.510Z,25.95
2022-09-27T14:19:25.710Z,25.97
2022-09-27T14:21:55.856Z,25.96
2022-09-27T14:24:30.406Z,25.95
2022-09-27T14:27:22.546Z,25.89
2022-09-27T14:30:03.637Z,25.75
2022-09-27T14:32:48.437Z,25.69
2022-09-27T14:35:37.865Z,25.72
2022-09-27T14:38:35.863Z,25.66
2022-09-27T14:41:02.804Z,25.66
2022-09-27T14:43:33.109Z,25.57
2022-09-27T14:46:07.525Z,25.59
2022-09-27T14:48:54.272Z,25.49
2022-09-27T14:51:42.179Z,25.43
2022-09-27T14:54:22.048Z,25.36
2022-09-27T14:56:52.906Z,25.31
2022-09-27T14:59:30.977Z,25.32
2022-09-27T15:02:01.718Z,25.25
2022-09-27T15:04:31.714Z,25.28
2022-09-27T15:07:02.189Z,25.22
2022-09-27T15:09:32.950Z,25.15
2022-09-27T15:12:00.948Z,25.02
2022-09-27T15:14:33.722Z,25.11
2022-09-27T15:17:05.973Z,24.91
2022-09-27T15:19:34.866Z,24.92
2022-09-27T15:22:24.698Z,25.05
2022-09-27T15:24:51.439Z,24.87
2022-09-27T15:27:24.168Z,25.02
2022-09-27T15:29:54.198Z,24.95
2022-09-27T15:32:25.485Z,24.83
2022-09-27T15:34:53.355Z,24.65
2022-09-27T15:37:36.642Z,24.15
2022-09-27T15:40:43.897Z,24.18
2022-09-27T15:43:25.240Z,23.88
2022-09-27T15:45:53.470Z,23.86
2022-09-27T15:48:20.876Z,23.89
2022-09-27T15:50:50.612Z,23.75
2022-09-27T15:53:35.606Z,23.86
2022-09-27T15:56:06.859Z,23.84
2022-09-27T15:58:35.397Z,23.75
2022-09-27T16:01:05.622Z,23.77
2022-09-27T16:03:33.350Z,23.73
2022-09-27T16:06:03.024Z,23.47
2022-09-27T16:08:29.973Z,23.49
2022-09-27T16:10:59.130Z,23.45
2022-09-27T16:13:31.869Z,23.43
2022-09-27T16:16:03.513Z,23.34
2022-09-27T16:18:31.133Z,23.29
2022-09-27T16:20:59.054Z,23.23
2022-09-27T16:23:26.043Z,23.16
2022-09-27T16:25:54.095Z,22.95
2022-09-27T16:28:26.859Z,22.84
2022-09-27T16:30:53.944Z,22.99
2022-09-27T16:33:24.630Z,23.03
2022-09-27T16:35:52.344Z,22.93
2022-09-27T16:38:19.041Z,22.85
2022-09-27T16:40:47.929Z,22.87
2022-09-27T16:43:15.739Z,22.83
2022-09-27T16:45:42.792Z,22.87
2022-09-27T16:48:09.410Z,22.88
2022-09-27T16:50:54.666Z,22.84
2022-09-27T16:53:22.378Z,23.01
2022-09-27T16:55:48.941Z,22.95
2022-09-27T16:58:15.546Z,23.02
2022-09-27T17:00:43.356Z,22.95
2022-09-27T17:03:10.105Z,22.91
2022-09-27T17:05:44.255Z,22.97
2022-09-27T17:08:13.191Z,22.80
2022-09-27T17:10:45.580Z,23.00
2022-09-27T17:13:36.489Z,22.94
2022-09-27T17:16:08.899Z,22.92
2022-09-27T17:18:40.725Z,22.85
2022-09-27T17:21:11.556Z,22.89
2022-09-27T17:23:38.293Z,22.64
2022-09-27T17:26:24.477Z,22.79
2022-09-27T17:28:54.134Z,22.59
2022-09-27T17:31:21.873Z,22.53
2022-09-27T17:33:57.647Z,22.61
2022-09-27T17:36:27.580Z,22.32
2022-09-27T17:38:54.503Z,22.31
2022-09-27T17:41:24.380Z,22.31
2022-09-27T17:44:00.364Z,22.29
2022-09-27T17:46:34.202Z,22.22
2022-09-27T17:49:19.504Z,22.21
2022-09-27T17:51:49.718Z,22.10
2022-09-27T17:54:18.960Z,21.98
2022-09-27T17:56:46.909Z,21.86
2022-09-27T17:59:17.518Z,21.55
2022-09-27T18:01:46.343Z,21.68
2022-09-27T18:04:21.227Z,21.65
2022-09-27T18:06:50.608Z,21.28
2022-09-27T18:09:17.642Z,21.47
2022-09-27T18:11:45.440Z,21.46
2022-09-27T18:14:12.470Z,21.30
2022-09-27T18:16:42.956Z,21.20
2022-09-27T18:19:15.441Z,21.05
2022-09-27T18:21:43.487Z,20.96
2022-09-27T18:24:10.999Z,20.84
2022-09-27T18:26:39.155Z,20.87
2022-09-27T18:29:12.827Z,20.95
2022-09-27T18:31:41.398Z,21.00
2022-09-27T18:34:09.811Z,20.88
2022-09-27T18:36:37.654Z,20.81
2022-09-27T18:39:06.259Z,20.75
2022-09-27T18:41:35.169Z,20.85
2022-09-27T18:44:06.217Z,20.58
2022-09-27T18:46:38.666Z,20.76
2022-09-27T18:49:08.511Z,20.65
2022-09-27T18:51:37.777Z,20.62
2022-09-27T18:54:20.704Z,20.69
2022-09-27T18:56:48.622Z,20.52
2022-09-27T18:59:23.390Z,20.61
2022-09-27T19:01:50.467Z,20.53
2022-09-27T19:04:26.973Z,20.38
2022-09-27T19:06:56.764Z,20.48
2022-09-27T19:09:24.544Z,20.44
2022-09-27T19:11:51.196Z,20.31
2022-09-27T19:14:22.901Z,20.21
2022-09-27T19:16:50.871Z,20.19
2022-09-27T19:19:19.189Z,20.21
2022-09-27T19:21:46.542Z,19.99
2022-09-27T19:24:15.199Z,20.19
2022-09-27T19:26:41.963Z,20.15
2022-09-27T19:29:08.569Z,20.01
2022-09-27T19:31:36.347Z,20.00
2022-09-27T19:34:03.931Z,20.21
2022-09-27T19:36:30.791Z,20.31
2022-09-27T19:39:01.038Z,20.42
2022-09-27T19:41:28.550Z,20.50
2022-09-27T19:43:56.279Z,20.63
2022-09-27T19:46:26.868Z,20.48
2022-09-27T19:48:56.221Z,20.57
2022-09-27T19:51:28.207Z,20.49
2022-09-27T19:53:55.756Z,20.53
2022-09-27T19:56:25.739Z,20.49
2022-09-27T19:58:52.373Z,20.43
2022-09-27T20:01:24.270Z,20.34
2022-09-27T20:03:59.799Z,20.11
2022-09-27T20:06:29.455Z,20.27
2022-09-27T20:08:56.035Z,20.16
2022-09-27T20:11:23.754Z,20.33
2022-09-27T20:13:52.970Z,20.33
2022-09-27T20:16:25.184Z,20.34
2022-09-27T20:19:01.766Z,20.45
2022-09-27T20:21:32.614Z,20.33
2022-09-27T20:24:00.838Z,20.48
2022-09-27T20:26:29.255Z,20.45
2022-09-27T20:29:00.544Z,20.54
2022-09-27T20:31:34.267Z,20.62
2022-09-27T20:34:01.337Z,20.46
2022-09-27T20:36:31.841Z,20.50
2022-09-27T20:39:03.979Z,19.99
2022-09-27T20:41:36.962Z,19.95
2022-09-27T20:44:08.810Z,19.88
2022-09-27T20:46:39.920Z,19.83
2022-09-27T20:49:12.974Z,19.68
2022-09-27T20:51:41.649Z,19.88
2022-09-27T20:54:10.311Z,19.82
2022-09-27T20:56:50.585Z,19.55
2022-09-27T20:59:23.179Z,19.53
2022-09-27T21:01:51.965Z,19.23
2022-09-27T21:04:20.013Z,18.88
2022-09-27T21:06:48.184Z,19.00
2022-09-27T21:09:20.610Z,19.07
2022-09-27T21:11:54.023Z,19.00
2022-09-27T21:14:27.824Z,18.66
2022-09-27T21:16:54.450Z,18.73
2022-09-27T21:19:21.320Z,18.68
2022-09-27T21:21:47.951Z,18.48
2022-09-27T21:24:14.560Z,18.27
2022-09-27T21:26:41.223Z,18.36
2022-09-27T21:29:12.208Z,18.52
2022-09-27T21:31:39.154Z,18.40
2022-09-27T21:34:10.634Z,18.10
2022-09-27T21:36:38.938Z,18.31
2022-09-27T21:39:10.522Z,17.99
2022-09-27T21:41:39.003Z,17.83
2022-09-27T21:44:06.725Z,18.08
2022-09-27T21:46:33.702Z,17.97
2022-09-27T21:49:04.664Z,18.19
2022-09-27T21:51:39.051Z,18.16
2022-09-27T21:54:10.882Z,17.97
2022-09-27T21:56:44.197Z,18.16
2022-09-27T21:59:14.156Z,18.10
2022-09-27T22:01:43.281Z,18.24
2022-09-27T22:04:09.998Z,18.21
2022-09-27T22:06:38.968Z,18.31
2022-09-27T22:09:09.464Z,18.28
2022-09-27T22:11:44.086Z,18.43
2022-09-27T22:14:17.019Z,18.40
2022-09-27T22:16:50.076Z,18.38
2022-09-27T22:19:18.125Z,18.46
2022-09-27T22:21:47.411Z,18.39
2022-09-27T22:24:18.407Z,18.31
2022-09-27T22:26:53.429Z,18.01
2022-09-27T22:29:21.545Z,18.05
2022-09-27T22:31:48.252Z,18.16
2022-09-27T22:34:18.828Z,18.30
2022-09-27T22:36:47.107Z,18.01
2022-09-27T22:39:13.953Z,18.00
2022-09-27T22:41:40.787Z,17.96
2022-09-27T22:44:11.207Z,18.01
2022-09-27T22:46:41.297Z,18.02
2022-09-27T22:49:08.544Z,17.98
2022-09-27T22:51:36.534Z,18.02
2022-09-27T22:54:03.285Z,17.84
2022-09-27T22:56:30.061Z,17.91
2022-09-27T22:58:57.970Z,17.82
2022-09-27T23:01:25.113Z,17.92
2022-09-27T23:03:53.701Z,17.72
2022-09-27T23:06:22.337Z,17.88
2022-09-27T23:08:50.897Z,17.81
2022-09-27T23:11:22.530Z,17.83
2022-09-27T23:13:51.815Z,17.68
2022-09-27T23:16:24.459Z,17.83
2022-09-27T23:18:57.633Z,17.65
2022-09-27T23:21:27.324Z,17.67
2022-09-27T23:23:59.767Z,17.80
2022-09-27T23:26:28.672Z,17.71
2022-09-27T23:29:01.339Z,17.75
2022-09-27T23:31:32.994Z,17.86
2022-09-27T23:34:03.284Z,17.84
2022-09-27T23:36:30.392Z,17.81
2022-09-27T23:39:04.064Z,17.84
2022-09-27T23:41:30.863Z,17.69
2022-09-27T23:43:57.807Z,17.71
2022-09-27T23:46:25.360Z,17.65
2022-09-27T23:48:53.604Z,17.83
2022-09-27T23:51:20.333Z,17.82
2022-09-27T23:53:47.196Z,17.68
2022-09-27T23:56:16.975Z,17.82
2022-09-27T23:58:46.401Z,17.84
